sensor_id;sensor_type;location;lat;lon;timestamp;P1;durP1;ratioP1;P2;durP2;ratioP2
41829;SDS011;38614;43.472;23.936;2024-03-29T00:00:25;17.25;;;6.00;;
41829;SDS011;38614;43.472;23.936;2024-03-29T00:03:12;12.48;;;5.18;;
41829;SDS011;38614;43.472;23.936;2024-03-29T00:05:58;10.70;;;4.80;;
41829;SDS011;38614;43.472;23.936;2024-03-29T00:08:45;12.90;;;3.45;;
41829;SDS011;38614;43.472;23.936;2024-03-29T00:11:31;7.38;;;3.40;;
41829;SDS011;38614;43.472;23.936;2024-03-29T00:14:18;10.02;;;3.08;;
41829;SDS011;38614;43.472;23.936;2024-03-29T00:17:04;7.38;;;2.35;;
41829;SDS011;38614;43.472;23.936;2024-03-29T00:19:56;8.10;;;2.88;;
41829;SDS011;38614;43.472;23.936;2024-03-29T00:22:46;8.55;;;3.03;;
41829;SDS011;38614;43.472;23.936;2024-03-29T00:25:35;9.02;;;3.22;;
41829;SDS011;38614;43.472;23.936;2024-03-29T00:28:22;5.68;;;2.22;;
41829;SDS011;38614;43.472;23.936;2024-03-29T00:31:08;6.35;;;2.88;;
41829;SDS011;38614;43.472;23.936;2024-03-29T00:33:55;5.45;;;3.00;;
41829;SDS011;38614;43.472;23.936;2024-03-29T00:36:41;9.23;;;2.00;;
41829;SDS011;38614;43.472;23.936;2024-03-29T00:39:28;7.00;;;2.20;;
41829;SDS011;38614;43.472;23.936;2024-03-29T00:42:15;4.15;;;1.25;;
41829;SDS011;38614;43.472;23.936;2024-03-29T00:45:02;9.13;;;2.72;;
41829;SDS011;38614;43.472;23.936;2024-03-29T00:47:49;7.78;;;2.05;;
41829;SDS011;38614;43.472;23.936;2024-03-29T00:50:41;6.65;;;1.80;;
41829;SDS011;38614;43.472;23.936;2024-03-29T00:53:27;6.35;;;2.28;;
41829;SDS011;38614;43.472;23.936;2024-03-29T00:56:15;5.00;;;1.15;;
41829;SDS011;38614;43.472;23.936;2024-03-29T00:59:04;7.30;;;2.17;;
41829;SDS011;38614;43.472;23.936;2024-03-29T01:01:50;6.78;;;1.33;;
41829;SDS011;38614;43.472;23.936;2024-03-29T01:04:37;6.28;;;2.40;;
41829;SDS011;38614;43.472;23.936;2024-03-29T01:07:24;10.23;;;2.22;;
41829;SDS011;38614;43.472;23.936;2024-03-29T01:10:12;6.30;;;2.10;;
41829;SDS011;38614;43.472;23.936;2024-03-29T01:12:58;7.20;;;2.80;;
41829;SDS011;38614;43.472;23.936;2024-03-29T01:15:45;12.48;;;3.25;;
41829;SDS011;38614;43.472;23.936;2024-03-29T01:18:31;8.18;;;3.63;;
41829;SDS011;38614;43.472;23.936;2024-03-29T01:21:19;7.38;;;3.17;;
41829;SDS011;38614;43.472;23.936;2024-03-29T01:24:05;9.43;;;2.42;;
41829;SDS011;38614;43.472;23.936;2024-03-29T01:26:52;14.38;;;2.40;;
41829;SDS011;38614;43.472;23.936;2024-03-29T01:29:38;8.20;;;3.00;;
41829;SDS011;38614;43.472;23.936;2024-03-29T01:32:27;7.03;;;2.95;;
41829;SDS011;38614;43.472;23.936;2024-03-29T01:35:14;5.38;;;2.50;;
41829;SDS011;38614;43.472;23.936;2024-03-29T01:38:00;5.63;;;2.10;;
41829;SDS011;38614;43.472;23.936;2024-03-29T01:40:47;9.93;;;2.80;;
41829;SDS011;38614;43.472;23.936;2024-03-29T01:43:34;9.68;;;4.43;;
41829;SDS011;38614;43.472;23.936;2024-03-29T01:46:21;11.27;;;4.03;;
41829;SDS011;38614;43.472;23.936;2024-03-29T01:49:08;7.88;;;3.30;;
41829;SDS011;38614;43.472;23.936;2024-03-29T01:51:57;12.57;;;4.20;;
41829;SDS011;38614;43.472;23.936;2024-03-29T01:54:43;6.97;;;3.58;;
41829;SDS011;38614;43.472;23.936;2024-03-29T01:57:30;10.38;;;3.95;;
41829;SDS011;38614;43.472;23.936;2024-03-29T02:00:17;6.28;;;4.03;;
41829;SDS011;38614;43.472;23.936;2024-03-29T02:03:04;7.80;;;3.75;;
41829;SDS011;38614;43.472;23.936;2024-03-29T02:05:55;7.38;;;4.35;;
41829;SDS011;38614;43.472;23.936;2024-03-29T02:08:43;9.50;;;3.75;;
41829;SDS011;38614;43.472;23.936;2024-03-29T02:11:30;10.38;;;3.30;;
41829;SDS011;38614;43.472;23.936;2024-03-29T02:14:17;8.60;;;3.65;;
41829;SDS011;38614;43.472;23.936;2024-03-29T02:17:06;14.15;;;4.53;;
41829;SDS011;38614;43.472;23.936;2024-03-29T02:19:52;14.38;;;4.40;;
41829;SDS011;38614;43.472;23.936;2024-03-29T02:22:40;19.92;;;5.68;;
41829;SDS011;38614;43.472;23.936;2024-03-29T02:25:34;9.77;;;4.47;;
41829;SDS011;38614;43.472;23.936;2024-03-29T02:31:13;16.48;;;4.28;;
41829;SDS011;38614;43.472;23.936;2024-03-29T02:34:08;9.00;;;3.90;;
41829;SDS011;38614;43.472;23.936;2024-03-29T02:36:56;10.63;;;3.92;;
41829;SDS011;38614;43.472;23.936;2024-03-29T02:39:45;6.85;;;3.83;;
41829;SDS011;38614;43.472;23.936;2024-03-29T02:42:34;12.60;;;4.22;;
41829;SDS011;38614;43.472;23.936;2024-03-29T02:45:26;13.45;;;3.92;;
41829;SDS011;38614;43.472;23.936;2024-03-29T02:48:13;6.50;;;2.90;;
41829;SDS011;38614;43.472;23.936;2024-03-29T02:50:59;8.75;;;3.85;;
41829;SDS011;38614;43.472;23.936;2024-03-29T02:53:46;7.38;;;3.60;;
41829;SDS011;38614;43.472;23.936;2024-03-29T02:56:32;9.55;;;3.75;;
41829;SDS011;38614;43.472;23.936;2024-03-29T02:59:19;10.45;;;2.72;;
41829;SDS011;38614;43.472;23.936;2024-03-29T03:02:09;11.73;;;2.75;;
41829;SDS011;38614;43.472;23.936;2024-03-29T03:04:55;5.38;;;2.65;;
41829;SDS011;38614;43.472;23.936;2024-03-29T03:07:42;14.00;;;3.15;;
41829;SDS011;38614;43.472;23.936;2024-03-29T03:10:47;6.25;;;2.58;;
41829;SDS011;38614;43.472;23.936;2024-03-29T03:13:42;4.95;;;3.03;;
41829;SDS011;38614;43.472;23.936;2024-03-29T03:16:29;16.38;;;4.78;;
41829;SDS011;38614;43.472;23.936;2024-03-29T03:19:16;10.73;;;2.90;;
41829;SDS011;38614;43.472;23.936;2024-03-29T03:22:02;11.73;;;2.90;;
41829;SDS011;38614;43.472;23.936;2024-03-29T03:24:49;6.68;;;2.85;;
41829;SDS011;38614;43.472;23.936;2024-03-29T03:27:35;5.95;;;2.75;;
41829;SDS011;38614;43.472;23.936;2024-03-29T03:30:28;8.45;;;2.45;;
41829;SDS011;38614;43.472;23.936;2024-03-29T03:33:19;8.63;;;3.55;;
41829;SDS011;38614;43.472;23.936;2024-03-29T03:36:07;16.00;;;5.28;;
41829;SDS011;38614;43.472;23.936;2024-03-29T03:38:54;11.38;;;5.18;;
41829;SDS011;38614;43.472;23.936;2024-03-29T03:41:41;20.05;;;6.95;;
41829;SDS011;38614;43.472;23.936;2024-03-29T03:44:27;14.52;;;6.28;;
41829;SDS011;38614;43.472;23.936;2024-03-29T03:47:14;12.88;;;5.65;;
41829;SDS011;38614;43.472;23.936;2024-03-29T03:50:01;11.95;;;6.45;;
41829;SDS011;38614;43.472;23.936;2024-03-29T03:52:47;14.05;;;5.40;;
41829;SDS011;38614;43.472;23.936;2024-03-29T03:55:37;10.98;;;5.30;;
41829;SDS011;38614;43.472;23.936;2024-03-29T03:58:24;10.98;;;4.30;;
41829;SDS011;38614;43.472;23.936;2024-03-29T04:01:10;15.63;;;3.30;;
41829;SDS011;38614;43.472;23.936;2024-03-29T04:03:57;7.72;;;2.35;;
41829;SDS011;38614;43.472;23.936;2024-03-29T04:06:44;4.32;;;2.20;;
41829;SDS011;38614;43.472;23.936;2024-03-29T04:09:30;6.80;;;2.00;;
41829;SDS011;38614;43.472;23.936;2024-03-29T04:12:17;5.00;;;2.03;;
41829;SDS011;38614;43.472;23.936;2024-03-29T04:15:03;5.53;;;1.95;;
41829;SDS011;38614;43.472;23.936;2024-03-29T04:17:50;8.18;;;2.55;;
41829;SDS011;38614;43.472;23.936;2024-03-29T04:20:37;4.10;;;1.75;;
41829;SDS011;38614;43.472;23.936;2024-03-29T04:23:23;6.82;;;2.30;;
41829;SDS011;38614;43.472;23.936;2024-03-29T04:26:10;4.97;;;2.05;;
41829;SDS011;38614;43.472;23.936;2024-03-29T04:28:57;8.02;;;3.20;;
41829;SDS011;38614;43.472;23.936;2024-03-29T04:31:47;5.53;;;2.45;;
41829;SDS011;38614;43.472;23.936;2024-03-29T04:34:34;14.40;;;2.80;;
41829;SDS011;38614;43.472;23.936;2024-03-29T04:37:24;5.38;;;1.73;;
41829;SDS011;38614;43.472;23.936;2024-03-29T04:40:10;5.85;;;2.03;;
41829;SDS011;38614;43.472;23.936;2024-03-29T04:42:57;5.32;;;2.28;;
41829;SDS011;38614;43.472;23.936;2024-03-29T04:45:44;15.63;;;5.82;;
41829;SDS011;38614;43.472;23.936;2024-03-29T04:48:35;11.48;;;4.75;;
41829;SDS011;38614;43.472;23.936;2024-03-29T04:51:22;6.80;;;2.13;;
41829;SDS011;38614;43.472;23.936;2024-03-29T04:54:08;6.53;;;3.97;;
41829;SDS011;38614;43.472;23.936;2024-03-29T04:56:56;18.85;;;5.78;;
41829;SDS011;38614;43.472;23.936;2024-03-29T04:59:43;17.58;;;5.78;;
41829;SDS011;38614;43.472;23.936;2024-03-29T05:02:29;12.68;;;6.68;;
41829;SDS011;38614;43.472;23.936;2024-03-29T05:05:16;10.88;;;6.47;;
41829;SDS011;38614;43.472;23.936;2024-03-29T05:08:03;8.82;;;5.80;;
41829;SDS011;38614;43.472;23.936;2024-03-29T05:10:50;9.07;;;4.85;;
41829;SDS011;38614;43.472;23.936;2024-03-29T05:13:36;13.65;;;5.32;;
41829;SDS011;38614;43.472;23.936;2024-03-29T05:16:30;13.43;;;4.70;;
41829;SDS011;38614;43.472;23.936;2024-03-29T05:19:18;12.80;;;3.88;;
41829;SDS011;38614;43.472;23.936;2024-03-29T05:22:04;10.20;;;5.80;;
41829;SDS011;38614;43.472;23.936;2024-03-29T05:24:54;9.80;;;4.75;;
41829;SDS011;38614;43.472;23.936;2024-03-29T05:27:40;16.92;;;5.13;;
41829;SDS011;38614;43.472;23.936;2024-03-29T05:30:27;18.80;;;6.05;;
41829;SDS011;38614;43.472;23.936;2024-03-29T05:33:15;10.35;;;4.70;;
41829;SDS011;38614;43.472;23.936;2024-03-29T05:36:02;8.20;;;4.00;;
41829;SDS011;38614;43.472;23.936;2024-03-29T05:38:51;15.30;;;3.42;;
41829;SDS011;38614;43.472;23.936;2024-03-29T05:41:37;12.13;;;2.42;;
41829;SDS011;38614;43.472;23.936;2024-03-29T05:44:24;5.40;;;2.47;;
41829;SDS011;38614;43.472;23.936;2024-03-29T05:47:10;6.40;;;2.33;;
41829;SDS011;38614;43.472;23.936;2024-03-29T05:49:56;9.27;;;1.90;;
41829;SDS011;38614;43.472;23.936;2024-03-29T05:52:43;7.15;;;1.50;;
41829;SDS011;38614;43.472;23.936;2024-03-29T05:55:29;3.47;;;1.65;;
41829;SDS011;38614;43.472;23.936;2024-03-29T05:58:16;4.40;;;1.70;;
41829;SDS011;38614;43.472;23.936;2024-03-29T06:01:05;2.03;;;1.70;;
41829;SDS011;38614;43.472;23.936;2024-03-29T06:03:51;4.07;;;1.35;;
41829;SDS011;38614;43.472;23.936;2024-03-29T06:06:39;4.28;;;1.38;;
41829;SDS011;38614;43.472;23.936;2024-03-29T06:09:26;4.32;;;1.75;;
41829;SDS011;38614;43.472;23.936;2024-03-29T06:12:13;6.43;;;1.33;;
41829;SDS011;38614;43.472;23.936;2024-03-29T06:14:59;8.02;;;2.05;;
41829;SDS011;38614;43.472;23.936;2024-03-29T06:18:05;7.22;;;1.80;;
41829;SDS011;38614;43.472;23.936;2024-03-29T06:20:51;4.03;;;1.70;;
41829;SDS011;38614;43.472;23.936;2024-03-29T06:23:38;5.20;;;1.25;;
41829;SDS011;38614;43.472;23.936;2024-03-29T06:26:24;8.25;;;0.73;;
41829;SDS011;38614;43.472;23.936;2024-03-29T06:29:11;11.60;;;1.23;;
41829;SDS011;38614;43.472;23.936;2024-03-29T06:31:57;12.25;;;1.83;;
41829;SDS011;38614;43.472;23.936;2024-03-29T06:34:44;8.05;;;1.00;;
41829;SDS011;38614;43.472;23.936;2024-03-29T06:37:31;3.05;;;0.98;;
41829;SDS011;38614;43.472;23.936;2024-03-29T06:40:18;4.05;;;0.77;;
41829;SDS011;38614;43.472;23.936;2024-03-29T06:43:06;9.25;;;1.23;;
41829;SDS011;38614;43.472;23.936;2024-03-29T06:45:53;4.35;;;1.65;;
41829;SDS011;38614;43.472;23.936;2024-03-29T06:48:42;4.85;;;1.70;;
41829;SDS011;38614;43.472;23.936;2024-03-29T06:51:28;6.22;;;1.45;;
41829;SDS011;38614;43.472;23.936;2024-03-29T06:54:15;9.63;;;1.08;;
41829;SDS011;38614;43.472;23.936;2024-03-29T06:57:02;7.28;;;0.55;;
41829;SDS011;38614;43.472;23.936;2024-03-29T06:59:49;2.80;;;0.63;;
41829;SDS011;38614;43.472;23.936;2024-03-29T07:02:35;6.65;;;0.50;;
41829;SDS011;38614;43.472;23.936;2024-03-29T07:05:22;7.07;;;0.10;;
41829;SDS011;38614;43.472;23.936;2024-03-29T07:08:09;3.42;;;0.10;;
41829;SDS011;38614;43.472;23.936;2024-03-29T07:10:59;1.05;;;0.30;;
41829;SDS011;38614;43.472;23.936;2024-03-29T07:13:45;1.38;;;0.00;;
41829;SDS011;38614;43.472;23.936;2024-03-29T07:16:32;1.65;;;0.32;;
41829;SDS011;38614;43.472;23.936;2024-03-29T07:19:19;0.30;;;0.00;;
41829;SDS011;38614;43.472;23.936;2024-03-29T07:22:07;6.75;;;0.03;;
41829;SDS011;38614;43.472;23.936;2024-03-29T07:24:53;2.50;;;0.10;;
41829;SDS011;38614;43.472;23.936;2024-03-29T07:27:40;1.25;;;0.10;;
41829;SDS011;38614;43.472;23.936;2024-03-29T07:30:27;1.25;;;0.10;;
41829;SDS011;38614;43.472;23.936;2024-03-29T07:33:13;1.73;;;0.20;;
41829;SDS011;38614;43.472;23.936;2024-03-29T07:36:01;5.00;;;0.15;;
41829;SDS011;38614;43.472;23.936;2024-03-29T07:38:48;0.75;;;0.00;;
41829;SDS011;38614;43.472;23.936;2024-03-29T07:41:35;1.20;;;0.10;;
41829;SDS011;38614;43.472;23.936;2024-03-29T07:44:21;0.10;;;0.00;;
41829;SDS011;38614;43.472;23.936;2024-03-29T07:47:09;8.02;;;0.15;;
41829;SDS011;38614;43.472;23.936;2024-03-29T07:49:55;1.20;;;0.00;;
41829;SDS011;38614;43.472;23.936;2024-03-29T07:52:44;1.52;;;0.10;;
41829;SDS011;38614;43.472;23.936;2024-03-29T07:55:30;0.50;;;0.05;;
41829;SDS011;38614;43.472;23.936;2024-03-29T07:58:17;6.95;;;0.10;;
41829;SDS011;38614;43.472;23.936;2024-03-29T08:01:04;1.17;;;0.10;;
41829;SDS011;38614;43.472;23.936;2024-03-29T08:03:52;1.85;;;0.00;;
41829;SDS011;38614;43.472;23.936;2024-03-29T08:06:41;1.73;;;0.28;;
41829;SDS011;38614;43.472;23.936;2024-03-29T08:09:28;4.35;;;0.13;;
41829;SDS011;38614;43.472;23.936;2024-03-29T08:12:14;5.93;;;0.10;;
41829;SDS011;38614;43.472;23.936;2024-03-29T08:15:01;1.52;;;0.00;;
41829;SDS011;38614;43.472;23.936;2024-03-29T08:17:48;2.53;;;0.00;;
41829;SDS011;38614;43.472;23.936;2024-03-29T08:20:35;1.85;;;0.10;;
41829;SDS011;38614;43.472;23.936;2024-03-29T08:23:21;4.72;;;0.20;;
41829;SDS011;38614;43.472;23.936;2024-03-29T08:26:08;3.58;;;0.43;;
41829;SDS011;38614;43.472;23.936;2024-03-29T08:28:54;0.77;;;0.03;;
41829;SDS011;38614;43.472;23.936;2024-03-29T08:31:41;5.82;;;0.40;;
41829;SDS011;38614;43.472;23.936;2024-03-29T08:34:28;2.63;;;0.30;;
41829;SDS011;38614;43.472;23.936;2024-03-29T08:37:20;6.65;;;0.22;;
41829;SDS011;38614;43.472;23.936;2024-03-29T08:40:07;1.40;;;0.22;;
41829;SDS011;38614;43.472;23.936;2024-03-29T08:42:53;3.38;;;0.30;;
41829;SDS011;38614;43.472;23.936;2024-03-29T08:45:40;2.10;;;0.52;;
41829;SDS011;38614;43.472;23.936;2024-03-29T08:48:27;2.40;;;0.20;;
41829;SDS011;38614;43.472;23.936;2024-03-29T08:51:14;3.90;;;0.20;;
41829;SDS011;38614;43.472;23.936;2024-03-29T08:54:03;4.65;;;0.40;;
41829;SDS011;38614;43.472;23.936;2024-03-29T08:56:51;1.63;;;0.20;;
41829;SDS011;38614;43.472;23.936;2024-03-29T08:59:37;1.98;;;0.00;;
41829;SDS011;38614;43.472;23.936;2024-03-29T09:02:24;0.45;;;0.10;;
41829;SDS011;38614;43.472;23.936;2024-03-29T09:05:10;3.42;;;0.00;;
41829;SDS011;38614;43.472;23.936;2024-03-29T09:07:57;0.55;;;0.05;;
41829;SDS011;38614;43.472;23.936;2024-03-29T09:10:44;3.72;;;0.40;;
41829;SDS011;38614;43.472;23.936;2024-03-29T09:13:31;3.92;;;0.00;;
41829;SDS011;38614;43.472;23.936;2024-03-29T09:16:18;2.60;;;0.13;;
41829;SDS011;38614;43.472;23.936;2024-03-29T09:19:05;3.15;;;0.25;;
41829;SDS011;38614;43.472;23.936;2024-03-29T09:21:51;2.10;;;0.20;;
41829;SDS011;38614;43.472;23.936;2024-03-29T09:24:38;2.20;;;0.13;;
41829;SDS011;38614;43.472;23.936;2024-03-29T09:27:26;1.77;;;0.13;;
41829;SDS011;38614;43.472;23.936;2024-03-29T09:30:13;3.47;;;0.22;;
41829;SDS011;38614;43.472;23.936;2024-03-29T09:33:01;3.88;;;0.10;;
41829;SDS011;38614;43.472;23.936;2024-03-29T09:35:54;2.10;;;0.20;;
41829;SDS011;38614;43.472;23.936;2024-03-29T09:38:40;6.03;;;0.57;;
41829;SDS011;38614;43.472;23.936;2024-03-29T09:41:27;1.75;;;0.20;;
41829;SDS011;38614;43.472;23.936;2024-03-29T09:44:15;3.47;;;0.32;;
41829;SDS011;38614;43.472;23.936;2024-03-29T09:47:03;1.40;;;0.10;;
41829;SDS011;38614;43.472;23.936;2024-03-29T09:49:50;2.80;;;0.20;;
41829;SDS011;38614;43.472;23.936;2024-03-29T09:52:37;2.00;;;0.10;;
41829;SDS011;38614;43.472;23.936;2024-03-29T09:55:24;3.90;;;0.20;;
41829;SDS011;38614;43.472;23.936;2024-03-29T09:58:11;2.90;;;0.47;;
41829;SDS011;38614;43.472;23.936;2024-03-29T10:00:57;3.80;;;0.77;;
41829;SDS011;38614;43.472;23.936;2024-03-29T10:03:44;2.08;;;0.10;;
41829;SDS011;38614;43.472;23.936;2024-03-29T10:06:33;2.38;;;0.10;;
41829;SDS011;38614;43.472;23.936;2024-03-29T10:09:21;8.80;;;0.15;;
41829;SDS011;38614;43.472;23.936;2024-03-29T10:12:08;2.63;;;0.13;;
41829;SDS011;38614;43.472;23.936;2024-03-29T10:14:55;0.60;;;0.00;;
41829;SDS011;38614;43.472;23.936;2024-03-29T10:17:51;4.30;;;0.00;;
41829;SDS011;38614;43.472;23.936;2024-03-29T10:20:38;3.80;;;0.10;;
41829;SDS011;38614;43.472;23.936;2024-03-29T10:23:25;11.15;;;0.80;;
41829;SDS011;38614;43.472;23.936;2024-03-29T10:26:11;6.32;;;0.10;;
41829;SDS011;38614;43.472;23.936;2024-03-29T10:28:59;3.72;;;0.10;;
41829;SDS011;38614;43.472;23.936;2024-03-29T10:31:47;0.95;;;0.13;;
41829;SDS011;38614;43.472;23.936;2024-03-29T10:34:36;3.70;;;0.20;;
41829;SDS011;38614;43.472;23.936;2024-03-29T10:37:23;1.13;;;0.00;;
41829;SDS011;38614;43.472;23.936;2024-03-29T10:43:03;1.70;;;0.10;;
41829;SDS011;38614;43.472;23.936;2024-03-29T10:45:52;3.42;;;0.32;;
41829;SDS011;38614;43.472;23.936;2024-03-29T10:48:45;3.75;;;0.35;;
41829;SDS011;38614;43.472;23.936;2024-03-29T10:51:33;1.30;;;0.00;;
41829;SDS011;38614;43.472;23.936;2024-03-29T10:54:20;10.77;;;0.20;;
41829;SDS011;38614;43.472;23.936;2024-03-29T10:57:09;3.00;;;0.15;;
41829;SDS011;38614;43.472;23.936;2024-03-29T11:00:11;1.88;;;0.10;;
41829;SDS011;38614;43.472;23.936;2024-03-29T11:06:03;2.83;;;0.10;;
41829;SDS011;38614;43.472;23.936;2024-03-29T11:08:50;3.25;;;0.13;;
41829;SDS011;38614;43.472;23.936;2024-03-29T11:11:39;5.35;;;0.20;;
41829;SDS011;38614;43.472;23.936;2024-03-29T11:14:29;7.95;;;0.03;;
41829;SDS011;38614;43.472;23.936;2024-03-29T11:17:18;6.03;;;0.10;;
41829;SDS011;38614;43.472;23.936;2024-03-29T11:20:05;3.72;;;0.40;;
41829;SDS011;38614;43.472;23.936;2024-03-29T11:22:52;0.63;;;0.03;;
41829;SDS011;38614;43.472;23.936;2024-03-29T11:28:31;2.00;;;0.10;;
41829;SDS011;38614;43.472;23.936;2024-03-29T11:31:22;9.52;;;0.10;;
41829;SDS011;38614;43.472;23.936;2024-03-29T11:34:09;0.98;;;0.05;;
41829;SDS011;38614;43.472;23.936;2024-03-29T11:37:05;8.63;;;0.63;;
41829;SDS011;38614;43.472;23.936;2024-03-29T11:39:53;7.82;;;0.25;;
41829;SDS011;38614;43.472;23.936;2024-03-29T11:42:44;2.47;;;0.10;;
41829;SDS011;38614;43.472;23.936;2024-03-29T11:45:31;2.13;;;0.03;;
41829;SDS011;38614;43.472;23.936;2024-03-29T11:48:27;3.53;;;0.00;;
41829;SDS011;38614;43.472;23.936;2024-03-29T11:51:14;1.55;;;0.17;;
41829;SDS011;38614;43.472;23.936;2024-03-29T11:54:01;3.78;;;0.10;;
41829;SDS011;38614;43.472;23.936;2024-03-29T11:56:48;1.50;;;0.00;;
41829;SDS011;38614;43.472;23.936;2024-03-29T11:59:35;2.92;;;0.20;;
41829;SDS011;38614;43.472;23.936;2024-03-29T12:02:22;5.88;;;0.52;;
41829;SDS011;38614;43.472;23.936;2024-03-29T12:05:09;2.70;;;0.40;;
41829;SDS011;38614;43.472;23.936;2024-03-29T12:07:56;1.90;;;0.10;;
41829;SDS011;38614;43.472;23.936;2024-03-29T12:10:44;4.57;;;0.75;;
41829;SDS011;38614;43.472;23.936;2024-03-29T12:13:31;2.80;;;0.38;;
41829;SDS011;38614;43.472;23.936;2024-03-29T12:16:17;2.53;;;0.30;;
41829;SDS011;38614;43.472;23.936;2024-03-29T12:19:04;5.25;;;0.00;;
41829;SDS011;38614;43.472;23.936;2024-03-29T12:21:51;1.13;;;0.10;;
41829;SDS011;38614;43.472;23.936;2024-03-29T12:24:37;1.60;;;0.00;;
41829;SDS011;38614;43.472;23.936;2024-03-29T12:27:24;2.70;;;0.10;;
41829;SDS011;38614;43.472;23.936;2024-03-29T12:30:12;3.28;;;0.45;;
41829;SDS011;38614;43.472;23.936;2024-03-29T12:32:59;2.03;;;0.22;;
41829;SDS011;38614;43.472;23.936;2024-03-29T12:35:49;6.88;;;0.10;;
41829;SDS011;38614;43.472;23.936;2024-03-29T12:38:38;3.10;;;0.10;;
41829;SDS011;38614;43.472;23.936;2024-03-29T12:41:24;3.55;;;0.10;;
41829;SDS011;38614;43.472;23.936;2024-03-29T12:44:11;3.30;;;0.20;;
41829;SDS011;38614;43.472;23.936;2024-03-29T12:46:58;6.28;;;0.10;;
41829;SDS011;38614;43.472;23.936;2024-03-29T12:49:45;1.42;;;0.30;;
41829;SDS011;38614;43.472;23.936;2024-03-29T12:52:41;1.42;;;0.20;;
41829;SDS011;38614;43.472;23.936;2024-03-29T12:55:28;2.63;;;0.25;;
41829;SDS011;38614;43.472;23.936;2024-03-29T12:58:17;2.92;;;0.10;;
41829;SDS011;38614;43.472;23.936;2024-03-29T13:01:06;8.18;;;0.47;;
41829;SDS011;38614;43.472;23.936;2024-03-29T13:03:53;1.75;;;0.47;;
41829;SDS011;38614;43.472;23.936;2024-03-29T13:06:39;2.15;;;0.20;;
41829;SDS011;38614;43.472;23.936;2024-03-29T13:09:26;0.40;;;0.10;;
41829;SDS011;38614;43.472;23.936;2024-03-29T13:12:15;1.98;;;0.10;;
41829;SDS011;38614;43.472;23.936;2024-03-29T13:15:02;6.50;;;0.15;;
41829;SDS011;38614;43.472;23.936;2024-03-29T13:17:50;1.88;;;0.17;;
41829;SDS011;38614;43.472;23.936;2024-03-29T13:20:38;2.15;;;0.30;;
41829;SDS011;38614;43.472;23.936;2024-03-29T13:23:28;0.55;;;0.08;;
41829;SDS011;38614;43.472;23.936;2024-03-29T13:26:14;3.97;;;0.13;;
41829;SDS011;38614;43.472;23.936;2024-03-29T13:29:01;5.60;;;0.52;;
41829;SDS011;38614;43.472;23.936;2024-03-29T13:31:47;9.25;;;0.25;;
41829;SDS011;38614;43.472;23.936;2024-03-29T13:34:34;3.15;;;0.00;;
41829;SDS011;38614;43.472;23.936;2024-03-29T13:37:20;5.90;;;0.20;;
41829;SDS011;38614;43.472;23.936;2024-03-29T13:40:07;1.10;;;0.00;;
41829;SDS011;38614;43.472;23.936;2024-03-29T13:42:54;3.25;;;0.10;;
41829;SDS011;38614;43.472;23.936;2024-03-29T13:45:41;2.58;;;0.10;;
41829;SDS011;38614;43.472;23.936;2024-03-29T13:48:27;1.17;;;0.10;;
41829;SDS011;38614;43.472;23.936;2024-03-29T13:51:14;5.50;;;0.10;;
41829;SDS011;38614;43.472;23.936;2024-03-29T13:54:00;3.92;;;0.70;;
41829;SDS011;38614;43.472;23.936;2024-03-29T13:56:47;3.78;;;0.20;;
41829;SDS011;38614;43.472;23.936;2024-03-29T13:59:33;5.57;;;0.47;;
41829;SDS011;38614;43.472;23.936;2024-03-29T14:02:20;0.68;;;0.22;;
41829;SDS011;38614;43.472;23.936;2024-03-29T14:05:06;4.88;;;0.30;;
41829;SDS011;38614;43.472;23.936;2024-03-29T14:07:53;3.00;;;0.38;;
41829;SDS011;38614;43.472;23.936;2024-03-29T14:10:40;2.28;;;0.30;;
41829;SDS011;38614;43.472;23.936;2024-03-29T14:13:28;3.20;;;0.10;;
41829;SDS011;38614;43.472;23.936;2024-03-29T14:16:14;5.13;;;0.15;;
41829;SDS011;38614;43.472;23.936;2024-03-29T14:19:03;0.65;;;0.00;;
41829;SDS011;38614;43.472;23.936;2024-03-29T14:21:50;1.33;;;0.60;;
41829;SDS011;38614;43.472;23.936;2024-03-29T14:24:40;2.53;;;0.10;;
41829;SDS011;38614;43.472;23.936;2024-03-29T14:27:26;2.97;;;0.38;;
41829;SDS011;38614;43.472;23.936;2024-03-29T14:30:14;3.15;;;0.10;;
41829;SDS011;38614;43.472;23.936;2024-03-29T14:33:01;3.03;;;0.00;;
41829;SDS011;38614;43.472;23.936;2024-03-29T14:38:54;4.05;;;0.85;;
41829;SDS011;38614;43.472;23.936;2024-03-29T14:41:42;4.13;;;0.20;;
41829;SDS011;38614;43.472;23.936;2024-03-29T14:44:29;3.42;;;0.00;;
41829;SDS011;38614;43.472;23.936;2024-03-29T14:47:15;3.40;;;0.00;;
41829;SDS011;38614;43.472;23.936;2024-03-29T14:50:03;2.17;;;0.10;;
41829;SDS011;38614;43.472;23.936;2024-03-29T14:52:54;4.47;;;0.55;;
41829;SDS011;38614;43.472;23.936;2024-03-29T14:55:40;1.35;;;0.15;;
41829;SDS011;38614;43.472;23.936;2024-03-29T14:58:27;2.70;;;0.20;;
41829;SDS011;38614;43.472;23.936;2024-03-29T15:01:14;7.07;;;0.30;;
41829;SDS011;38614;43.472;23.936;2024-03-29T15:04:00;4.63;;;0.22;;
41829;SDS011;38614;43.472;23.936;2024-03-29T15:06:47;1.85;;;0.32;;
41829;SDS011;38614;43.472;23.936;2024-03-29T15:09:35;5.72;;;0.28;;
41829;SDS011;38614;43.472;23.936;2024-03-29T15:12:22;7.13;;;0.30;;
41829;SDS011;38614;43.472;23.936;2024-03-29T15:15:08;6.13;;;0.70;;
41829;SDS011;38614;43.472;23.936;2024-03-29T15:17:55;9.68;;;0.63;;
41829;SDS011;38614;43.472;23.936;2024-03-29T15:20:52;5.60;;;2.45;;
41829;SDS011;38614;43.472;23.936;2024-03-29T15:23:39;5.65;;;0.52;;
41829;SDS011;38614;43.472;23.936;2024-03-29T15:26:26;2.42;;;0.10;;
41829;SDS011;38614;43.472;23.936;2024-03-29T15:29:13;7.70;;;0.32;;
41829;SDS011;38614;43.472;23.936;2024-03-29T15:32:02;5.38;;;0.35;;
41829;SDS011;38614;43.472;23.936;2024-03-29T15:34:48;3.28;;;0.20;;
41829;SDS011;38614;43.472;23.936;2024-03-29T15:37:36;19.50;;;0.50;;
41829;SDS011;38614;43.472;23.936;2024-03-29T15:40:23;3.63;;;0.82;;
41829;SDS011;38614;43.472;23.936;2024-03-29T15:43:10;3.40;;;0.10;;
41829;SDS011;38614;43.472;23.936;2024-03-29T15:45:57;1.45;;;0.08;;
41829;SDS011;38614;43.472;23.936;2024-03-29T15:48:44;6.13;;;0.20;;
41829;SDS011;38614;43.472;23.936;2024-03-29T15:51:31;3.50;;;0.20;;
41829;SDS011;38614;43.472;23.936;2024-03-29T15:54:17;6.22;;;0.63;;
41829;SDS011;38614;43.472;23.936;2024-03-29T15:57:06;3.38;;;0.30;;
41829;SDS011;38614;43.472;23.936;2024-03-29T15:59:53;4.28;;;0.52;;
41829;SDS011;38614;43.472;23.936;2024-03-29T16:02:46;7.97;;;0.10;;
41829;SDS011;38614;43.472;23.936;2024-03-29T16:05:33;7.15;;;0.10;;
41829;SDS011;38614;43.472;23.936;2024-03-29T16:08:19;5.07;;;0.22;;
41829;SDS011;38614;43.472;23.936;2024-03-29T16:11:06;8.27;;;0.30;;
41829;SDS011;38614;43.472;23.936;2024-03-29T16:13:53;10.15;;;0.20;;
41829;SDS011;38614;43.472;23.936;2024-03-29T16:16:49;5.22;;;0.10;;
41829;SDS011;38614;43.472;23.936;2024-03-29T16:19:49;5.82;;;0.60;;
41829;SDS011;38614;43.472;23.936;2024-03-29T16:22:35;7.57;;;0.30;;
41829;SDS011;38614;43.472;23.936;2024-03-29T16:25:22;3.75;;;0.30;;
41829;SDS011;38614;43.472;23.936;2024-03-29T16:28:12;2.35;;;0.38;;
41829;SDS011;38614;43.472;23.936;2024-03-29T16:31:01;8.88;;;1.48;;
41829;SDS011;38614;43.472;23.936;2024-03-29T16:33:47;10.60;;;1.63;;
41829;SDS011;38614;43.472;23.936;2024-03-29T16:36:34;10.77;;;1.58;;
41829;SDS011;38614;43.472;23.936;2024-03-29T16:39:21;15.13;;;2.53;;
41829;SDS011;38614;43.472;23.936;2024-03-29T16:42:08;7.60;;;4.50;;
41829;SDS011;38614;43.472;23.936;2024-03-29T16:44:54;8.57;;;2.65;;
41829;SDS011;38614;43.472;23.936;2024-03-29T16:47:41;11.95;;;2.97;;